sensor_id;sensor_type;location;lat;lon;timestamp;temperature;humidity
22680;DHT22;11507;44.858;10.374;2023-03-01T00:02:20;2.20;99.90
22680;DHT22;11507;44.858;10.374;2023-03-01T00:04:47;2.20;99.90
22680;DHT22;11507;44.858;10.374;2023-03-01T00:07:13;2.30;99.90
22680;DHT22;11507;44.858;10.374;2023-03-01T00:09:38;2.20;99.90
22680;DHT22;11507;44.858;10.374;2023-03-01T00:12:06;2.20;99.90
22680;DHT22;11507;44.858;10.374;2023-03-01T00:14:32;2.20;99.90
22680;DHT22;11507;44.858;10.374;2023-03-01T00:16:58;2.20;99.90
22680;DHT22;11507;44.858;10.374;2023-03-01T00:19:23;2.20;99.90
22680;DHT22;11507;44.858;10.374;2023-03-01T00:21:50;2.10;99.90
22680;DHT22;11507;44.858;10.374;2023-03-01T00:24:16;2.10;99.90
22680;DHT22;11507;44.858;10.374;2023-03-01T00:26:42;2.10;99.90
22680;DHT22;11507;44.858;10.374;2023-03-01T00:29:08;2.20;99.90
22680;DHT22;11507;44.858;10.374;2023-03-01T00:31:33;2.20;99.90
22680;DHT22;11507;44.858;10.374;2023-03-01T00:34:02;2.20;99.90
22680;DHT22;11507;44.858;10.374;2023-03-01T00:36:32;2.20;99.90
22680;DHT22;11507;44.858;10.374;2023-03-01T00:38:59;2.20;99.90
22680;DHT22;11507;44.858;10.374;2023-03-01T00:41:25;2.30;99.90
22680;DHT22;11507;44.858;10.374;2023-03-01T00:43:54;2.20;99.90
22680;DHT22;11507;44.858;10.374;2023-03-01T00:46:26;2.20;99.90
22680;DHT22;11507;44.858;10.374;2023-03-01T00:48:52;2.10;99.90
22680;DHT22;11507;44.858;10.374;2023-03-01T00:51:21;2.10;99.90
22680;DHT22;11507;44.858;10.374;2023-03-01T00:53:50;2.10;99.90
22680;DHT22;11507;44.858;10.374;2023-03-01T00:56:16;2.00;99.90
22680;DHT22;11507;44.858;10.374;2023-03-01T00:58:43;1.90;99.90
22680;DHT22;11507;44.858;10.374;2023-03-01T01:01:16;1.90;99.90
22680;DHT22;11507;44.858;10.374;2023-03-01T01:03:48;1.80;99.90
22680;DHT22;11507;44.858;10.374;2023-03-01T01:06:23;1.70;99.90
22680;DHT22;11507;44.858;10.374;2023-03-01T01:08:50;1.70;99.90
22680;DHT22;11507;44.858;10.374;2023-03-01T01:11:16;1.60;99.90
22680;DHT22;11507;44.858;10.374;2023-03-01T01:13:44;1.60;99.90
22680;DHT22;11507;44.858;10.374;2023-03-01T01:16:11;1.60;99.90
22680;DHT22;11507;44.858;10.374;2023-03-01T01:18:38;1.50;99.90
22680;DHT22;11507;44.858;10.374;2023-03-01T01:21:06;1.40;99.90
22680;DHT22;11507;44.858;10.374;2023-03-01T01:23:32;1.30;99.90
22680;DHT22;11507;44.858;10.374;2023-03-01T01:26:03;1.30;99.90
22680;DHT22;11507;44.858;10.374;2023-03-01T01:28:29;1.20;99.90
22680;DHT22;11507;44.858;10.374;2023-03-01T01:30:54;1.10;99.90
22680;DHT22;11507;44.858;10.374;2023-03-01T01:33:20;1.10;99.90
22680;DHT22;11507;44.858;10.374;2023-03-01T01:35:46;1.00;99.90
22680;DHT22;11507;44.858;10.374;2023-03-01T01:38:12;0.90;99.90
22680;DHT22;11507;44.858;10.374;2023-03-01T01:40:44;0.90;99.90
22680;DHT22;11507;44.858;10.374;2023-03-01T01:43:25;0.90;99.90
22680;DHT22;11507;44.858;10.374;2023-03-01T01:45:54;0.80;99.90
22680;DHT22;11507;44.858;10.374;2023-03-01T01:48:23;0.80;99.90
22680;DHT22;11507;44.858;10.374;2023-03-01T01:50:55;0.80;99.90
22680;DHT22;11507;44.858;10.374;2023-03-01T01:53:23;0.80;99.90
22680;DHT22;11507;44.858;10.374;2023-03-01T01:55:57;0.70;99.90
22680;DHT22;11507;44.858;10.374;2023-03-01T01:58:26;0.70;99.90
22680;DHT22;11507;44.858;10.374;2023-03-01T02:00:53;0.60;99.90
22680;DHT22;11507;44.858;10.374;2023-03-01T02:03:33;0.50;99.90
22680;DHT22;11507;44.858;10.374;2023-03-01T02:06:13;0.50;99.90
22680;DHT22;11507;44.858;10.374;2023-03-01T02:08:42;0.40;99.90
22680;DHT22;11507;44.858;10.374;2023-03-01T02:11:09;0.30;99.90
22680;DHT22;11507;44.858;10.374;2023-03-01T02:13:36;0.30;99.90
22680;DHT22;11507;44.858;10.374;2023-03-01T02:16:05;0.30;99.90
22680;DHT22;11507;44.858;10.374;2023-03-01T02:18:34;0.30;99.90
22680;DHT22;11507;44.858;10.374;2023-03-01T02:21:08;0.40;99.90
22680;DHT22;11507;44.858;10.374;2023-03-01T02:23:38;0.40;99.90
22680;DHT22;11507;44.858;10.374;2023-03-01T02:28:58;0.40;99.90
22680;DHT22;11507;44.858;10.374;2023-03-01T02:31:25;0.40;99.90
22680;DHT22;11507;44.858;10.374;2023-03-01T02:34:20;0.40;99.90
22680;DHT22;11507;44.858;10.374;2023-03-01T02:36:56;0.40;99.90
22680;DHT22;11507;44.858;10.374;2023-03-01T02:39:54;0.40;99.90
22680;DHT22;11507;44.858;10.374;2023-03-01T02:42:28;0.40;99.90
22680;DHT22;11507;44.858;10.374;2023-03-01T02:44:56;0.50;99.90
22680;DHT22;11507;44.858;10.374;2023-03-01T02:47:22;0.50;99.90
22680;DHT22;11507;44.858;10.374;2023-03-01T02:49:48;0.50;99.90
22680;DHT22;11507;44.858;10.374;2023-03-01T02:52:21;0.60;99.90
22680;DHT22;11507;44.858;10.374;2023-03-01T02:57:43;0.70;99.90
22680;DHT22;11507;44.858;10.374;2023-03-01T03:00:12;0.70;99.90
22680;DHT22;11507;44.858;10.374;2023-03-01T03:02:46;0.70;99.90
22680;DHT22;11507;44.858;10.374;2023-03-01T03:05:28;0.70;99.90
22680;DHT22;11507;44.858;10.374;2023-03-01T03:07:57;0.70;99.90
22680;DHT22;11507;44.858;10.374;2023-03-01T03:10:28;0.60;99.90
22680;DHT22;11507;44.858;10.374;2023-03-01T03:13:06;0.60;99.90
22680;DHT22;11507;44.858;10.374;2023-03-01T03:15:33;0.60;99.90
22680;DHT22;11507;44.858;10.374;2023-03-01T03:18:05;0.60;99.90
22680;DHT22;11507;44.858;10.374;2023-03-01T03:20:31;0.70;99.90
22680;DHT22;11507;44.858;10.374;2023-03-01T03:22:57;0.70;99.90
22680;DHT22;11507;44.858;10.374;2023-03-01T03:25:28;0.70;99.90
22680;DHT22;11507;44.858;10.374;2023-03-01T03:27:55;0.70;99.90
22680;DHT22;11507;44.858;10.374;2023-03-01T03:30:30;0.80;99.90
22680;DHT22;11507;44.858;10.374;2023-03-01T03:32:58;0.90;99.90
22680;DHT22;11507;44.858;10.374;2023-03-01T03:35:27;0.90;99.90
22680;DHT22;11507;44.858;10.374;2023-03-01T03:37:56;1.10;99.90
22680;DHT22;11507;44.858;10.374;2023-03-01T03:40:39;1.10;99.90
22680;DHT22;11507;44.858;10.374;2023-03-01T03:43:11;1.20;99.90
22680;DHT22;11507;44.858;10.374;2023-03-01T03:45:39;1.30;99.90
22680;DHT22;11507;44.858;10.374;2023-03-01T03:48:05;1.30;99.90
22680;DHT22;11507;44.858;10.374;2023-03-01T03:50:31;1.30;99.90
22680;DHT22;11507;44.858;10.374;2023-03-01T03:52:57;1.30;99.90
22680;DHT22;11507;44.858;10.374;2023-03-01T03:55:23;1.30;99.90
22680;DHT22;11507;44.858;10.374;2023-03-01T03:57:53;1.30;99.90
22680;DHT22;11507;44.858;10.374;2023-03-01T04:00:20;1.40;99.90
22680;DHT22;11507;44.858;10.374;2023-03-01T04:02:47;1.40;99.90
22680;DHT22;11507;44.858;10.374;2023-03-01T04:05:15;1.40;99.90
22680;DHT22;11507;44.858;10.374;2023-03-01T04:07:42;1.40;99.90
22680;DHT22;11507;44.858;10.374;2023-03-01T04:10:11;1.40;99.90
22680;DHT22;11507;44.858;10.374;2023-03-01T04:12:37;1.50;99.90
22680;DHT22;11507;44.858;10.374;2023-03-01T04:15:04;1.50;99.90
22680;DHT22;11507;44.858;10.374;2023-03-01T04:17:42;1.50;99.90
22680;DHT22;11507;44.858;10.374;2023-03-01T04:20:17;1.60;99.90
22680;DHT22;11507;44.858;10.374;2023-03-01T04:22:44;1.60;99.90
22680;DHT22;11507;44.858;10.374;2023-03-01T04:25:13;1.60;99.90
22680;DHT22;11507;44.858;10.374;2023-03-01T04:27:40;1.70;99.90
22680;DHT22;11507;44.858;10.374;2023-03-01T04:30:08;1.70;99.90
22680;DHT22;11507;44.858;10.374;2023-03-01T04:32:34;1.70;99.90
22680;DHT22;11507;44.858;10.374;2023-03-01T04:35:01;1.70;99.90
22680;DHT22;11507;44.858;10.374;2023-03-01T04:37:26;1.70;99.90
22680;DHT22;11507;44.858;10.374;2023-03-01T04:39:53;1.70;99.90
22680;DHT22;11507;44.858;10.374;2023-03-01T04:42:18;1.70;99.90
22680;DHT22;11507;44.858;10.374;2023-03-01T04:44:45;1.70;99.90
22680;DHT22;11507;44.858;10.374;2023-03-01T04:47:11;1.80;99.90
22680;DHT22;11507;44.858;10.374;2023-03-01T04:49:38;1.70;99.90
22680;DHT22;11507;44.858;10.374;2023-03-01T04:52:05;1.80;99.90
22680;DHT22;11507;44.858;10.374;2023-03-01T04:54:31;1.90;99.90
22680;DHT22;11507;44.858;10.374;2023-03-01T04:56:58;1.90;99.90
22680;DHT22;11507;44.858;10.374;2023-03-01T04:59:24;1.90;99.90
22680;DHT22;11507;44.858;10.374;2023-03-01T05:01:54;1.90;99.90
22680;DHT22;11507;44.858;10.374;2023-03-01T05:04:26;1.80;99.90
22680;DHT22;11507;44.858;10.374;2023-03-01T05:06:51;1.90;99.90
22680;DHT22;11507;44.858;10.374;2023-03-01T05:09:19;2.00;99.90
22680;DHT22;11507;44.858;10.374;2023-03-01T05:11:45;2.00;99.90
22680;DHT22;11507;44.858;10.374;2023-03-01T05:14:11;2.00;99.90
22680;DHT22;11507;44.858;10.374;2023-03-01T05:16:38;2.00;99.90
22680;DHT22;11507;44.858;10.374;2023-03-01T05:19:04;2.00;99.90
22680;DHT22;11507;44.858;10.374;2023-03-01T05:21:39;2.10;99.90
22680;DHT22;11507;44.858;10.374;2023-03-01T05:24:26;2.10;99.90
22680;DHT22;11507;44.858;10.374;2023-03-01T05:26:52;2.10;99.90
22680;DHT22;11507;44.858;10.374;2023-03-01T05:29:23;2.10;99.90
22680;DHT22;11507;44.858;10.374;2023-03-01T05:31:57;2.10;99.90
22680;DHT22;11507;44.858;10.374;2023-03-01T05:34:29;2.20;99.90
22680;DHT22;11507;44.858;10.374;2023-03-01T05:36:59;2.10;99.90
22680;DHT22;11507;44.858;10.374;2023-03-01T05:39:28;2.10;99.90
22680;DHT22;11507;44.858;10.374;2023-03-01T05:41:57;2.10;99.90
22680;DHT22;11507;44.858;10.374;2023-03-01T05:44:24;2.00;99.90
22680;DHT22;11507;44.858;10.374;2023-03-01T05:46:51;2.00;99.90
22680;DHT22;11507;44.858;10.374;2023-03-01T05:49:19;2.00;99.90
22680;DHT22;11507;44.858;10.374;2023-03-01T05:51:51;2.10;99.90
22680;DHT22;11507;44.858;10.374;2023-03-01T05:54:21;2.20;99.90
22680;DHT22;11507;44.858;10.374;2023-03-01T05:56:49;2.20;99.90
22680;DHT22;11507;44.858;10.374;2023-03-01T05:59:17;2.20;99.90
22680;DHT22;11507;44.858;10.374;2023-03-01T06:01:46;2.20;99.90
22680;DHT22;11507;44.858;10.374;2023-03-01T06:04:14;2.30;99.90
22680;DHT22;11507;44.858;10.374;2023-03-01T06:06:42;2.40;99.90
22680;DHT22;11507;44.858;10.374;2023-03-01T06:09:09;2.40;99.90
22680;DHT22;11507;44.858;10.374;2023-03-01T06:11:39;2.40;99.90
22680;DHT22;11507;44.858;10.374;2023-03-01T06:14:10;2.50;99.90
22680;DHT22;11507;44.858;10.374;2023-03-01T06:16:41;2.50;99.90
22680;DHT22;11507;44.858;10.374;2023-03-01T06:19:08;2.50;99.90
22680;DHT22;11507;44.858;10.374;2023-03-01T06:21:36;2.50;99.90
22680;DHT22;11507;44.858;10.374;2023-03-01T06:24:03;2.60;99.90
22680;DHT22;11507;44.858;10.374;2023-03-01T06:26:29;2.60;99.90
22680;DHT22;11507;44.858;10.374;2023-03-01T06:29:00;2.60;99.90
22680;DHT22;11507;44.858;10.374;2023-03-01T06:31:29;2.60;99.90
22680;DHT22;11507;44.858;10.374;2023-03-01T06:33:58;2.60;99.90
22680;DHT22;11507;44.858;10.374;2023-03-01T06:36:23;2.60;99.90
22680;DHT22;11507;44.858;10.374;2023-03-01T06:38:49;2.60;99.90
22680;DHT22;11507;44.858;10.374;2023-03-01T06:41:16;2.60;99.90
22680;DHT22;11507;44.858;10.374;2023-03-01T06:43:42;2.70;99.90
22680;DHT22;11507;44.858;10.374;2023-03-01T06:46:11;2.70;99.90
22680;DHT22;11507;44.858;10.374;2023-03-01T06:48:38;2.70;99.90
22680;DHT22;11507;44.858;10.374;2023-03-01T06:51:04;2.80;99.90
22680;DHT22;11507;44.858;10.374;2023-03-01T06:53:31;2.90;99.90
22680;DHT22;11507;44.858;10.374;2023-03-01T06:55:58;2.90;99.90
22680;DHT22;11507;44.858;10.374;2023-03-01T06:58:29;3.00;99.90
22680;DHT22;11507;44.858;10.374;2023-03-01T07:00:56;3.20;99.90
22680;DHT22;11507;44.858;10.374;2023-03-01T07:03:25;3.30;99.90
22680;DHT22;11507;44.858;10.374;2023-03-01T07:05:53;3.50;99.90
22680;DHT22;11507;44.858;10.374;2023-03-01T07:08:19;3.70;99.90
22680;DHT22;11507;44.858;10.374;2023-03-01T07:10:46;3.90;99.90
22680;DHT22;11507;44.858;10.374;2023-03-01T07:13:12;4.00;99.90
22680;DHT22;11507;44.858;10.374;2023-03-01T07:15:43;4.10;99.90
22680;DHT22;11507;44.858;10.374;2023-03-01T07:18:10;4.20;99.90
22680;DHT22;11507;44.858;10.374;2023-03-01T07:20:36;4.40;99.90
22680;DHT22;11507;44.858;10.374;2023-03-01T07:23:05;4.50;99.90
22680;DHT22;11507;44.858;10.374;2023-03-01T07:25:32;4.70;99.90
22680;DHT22;11507;44.858;10.374;2023-03-01T07:27:58;4.80;99.90
22680;DHT22;11507;44.858;10.374;2023-03-01T07:30:26;5.00;99.90
22680;DHT22;11507;44.858;10.374;2023-03-01T07:32:55;5.10;99.90
22680;DHT22;11507;44.858;10.374;2023-03-01T07:35:25;5.20;99.90
22680;DHT22;11507;44.858;10.374;2023-03-01T07:37:54;5.30;99.90
22680;DHT22;11507;44.858;10.374;2023-03-01T07:40:21;5.40;99.90
22680;DHT22;11507;44.858;10.374;2023-03-01T07:42:48;5.50;99.90
22680;DHT22;11507;44.858;10.374;2023-03-01T07:45:16;5.60;99.90
22680;DHT22;11507;44.858;10.374;2023-03-01T07:47:42;5.60;99.90
22680;DHT22;11507;44.858;10.374;2023-03-01T07:50:09;5.70;99.90
22680;DHT22;11507;44.858;10.374;2023-03-01T07:52:36;5.80;99.90
22680;DHT22;11507;44.858;10.374;2023-03-01T07:55:03;5.90;99.90
22680;DHT22;11507;44.858;10.374;2023-03-01T07:57:30;5.90;99.90
22680;DHT22;11507;44.858;10.374;2023-03-01T07:59:58;5.80;99.90
22680;DHT22;11507;44.858;10.374;2023-03-01T08:02:27;5.70;99.90
22680;DHT22;11507;44.858;10.374;2023-03-01T08:04:55;5.70;99.90
22680;DHT22;11507;44.858;10.374;2023-03-01T08:07:23;5.70;99.90
22680;DHT22;11507;44.858;10.374;2023-03-01T08:09:53;5.60;99.90
22680;DHT22;11507;44.858;10.374;2023-03-01T08:12:20;5.70;99.90
22680;DHT22;11507;44.858;10.374;2023-03-01T08:14:47;5.80;99.90
22680;DHT22;11507;44.858;10.374;2023-03-01T08:17:16;5.90;99.90
22680;DHT22;11507;44.858;10.374;2023-03-01T08:19:42;5.90;99.90
22680;DHT22;11507;44.858;10.374;2023-03-01T08:22:09;6.00;99.90
22680;DHT22;11507;44.858;10.374;2023-03-01T08:24:34;5.90;99.90
22680;DHT22;11507;44.858;10.374;2023-03-01T08:27:03;5.90;99.90
22680;DHT22;11507;44.858;10.374;2023-03-01T08:29:33;5.80;99.90
22680;DHT22;11507;44.858;10.374;2023-03-01T08:32:01;5.70;99.90
22680;DHT22;11507;44.858;10.374;2023-03-01T08:34:30;5.70;99.90
22680;DHT22;11507;44.858;10.374;2023-03-01T08:36:57;5.60;99.90
22680;DHT22;11507;44.858;10.374;2023-03-01T08:39:27;5.60;99.90
22680;DHT22;11507;44.858;10.374;2023-03-01T08:41:53;5.60;99.90
22680;DHT22;11507;44.858;10.374;2023-03-01T08:44:22;5.60;99.90
22680;DHT22;11507;44.858;10.374;2023-03-01T08:46:49;5.50;99.90
22680;DHT22;11507;44.858;10.374;2023-03-01T08:49:18;5.50;99.90
22680;DHT22;11507;44.858;10.374;2023-03-01T08:51:48;5.50;99.90
22680;DHT22;11507;44.858;10.374;2023-03-01T08:54:19;5.50;99.90
22680;DHT22;11507;44.858;10.374;2023-03-01T08:56:49;5.50;99.90
22680;DHT22;11507;44.858;10.374;2023-03-01T08:59:17;5.50;99.90
22680;DHT22;11507;44.858;10.374;2023-03-01T09:01:44;5.40;99.90
22680;DHT22;11507;44.858;10.374;2023-03-01T09:04:14;5.50;99.90
22680;DHT22;11507;44.858;10.374;2023-03-01T09:06:42;5.50;99.90
22680;DHT22;11507;44.858;10.374;2023-03-01T09:09:15;5.60;99.90
22680;DHT22;11507;44.858;10.374;2023-03-01T09:11:44;5.70;99.90
22680;DHT22;11507;44.858;10.374;2023-03-01T09:14:16;5.80;99.90
22680;DHT22;11507;44.858;10.374;2023-03-01T09:16:45;5.90;99.90
22680;DHT22;11507;44.858;10.374;2023-03-01T09:19:11;6.10;99.90
22680;DHT22;11507;44.858;10.374;2023-03-01T09:21:38;6.20;99.90
22680;DHT22;11507;44.858;10.374;2023-03-01T09:24:06;6.30;99.90
22680;DHT22;11507;44.858;10.374;2023-03-01T09:26:33;6.40;99.90
22680;DHT22;11507;44.858;10.374;2023-03-01T09:29:00;6.40;99.90
22680;DHT22;11507;44.858;10.374;2023-03-01T09:31:30;6.40;99.90
22680;DHT22;11507;44.858;10.374;2023-03-01T09:33:57;6.40;99.90
22680;DHT22;11507;44.858;10.374;2023-03-01T09:36:31;6.30;99.90
22680;DHT22;11507;44.858;10.374;2023-03-01T09:38:57;6.30;99.90
22680;DHT22;11507;44.858;10.374;2023-03-01T09:46:58;6.20;99.90
22680;DHT22;11507;44.858;10.374;2023-03-01T09:49:28;6.20;99.90
22680;DHT22;11507;44.858;10.374;2023-03-01T09:54:57;6.20;99.90
22680;DHT22;11507;44.858;10.374;2023-03-01T09:57:36;6.20;99.90
22680;DHT22;11507;44.858;10.374;2023-03-01T10:02:57;6.40;99.90
22680;DHT22;11507;44.858;10.374;2023-03-01T10:06:18;6.40;99.90
22680;DHT22;11507;44.858;10.374;2023-03-01T10:08:40;6.40;99.90
22680;DHT22;11507;44.858;10.374;2023-03-01T10:11:32;6.40;99.90
22680;DHT22;11507;44.858;10.374;2023-03-01T10:16:55;6.40;99.90
22680;DHT22;11507;44.858;10.374;2023-03-01T10:22:28;6.50;99.90
22680;DHT22;11507;44.858;10.374;2023-03-01T10:24:58;6.60;99.90
22680;DHT22;11507;44.858;10.374;2023-03-01T10:27:34;6.80;99.90
22680;DHT22;11507;44.858;10.374;2023-03-01T10:33:20;7.00;99.90
22680;DHT22;11507;44.858;10.374;2023-03-01T10:35:49;7.00;99.90
22680;DHT22;11507;44.858;10.374;2023-03-01T10:38:18;7.00;99.90
22680;DHT22;11507;44.858;10.374;2023-03-01T10:40:57;7.00;99.90
22680;DHT22;11507;44.858;10.374;2023-03-01T10:43:25;7.20;99.90
22680;DHT22;11507;44.858;10.374;2023-03-01T10:45:56;7.40;99.90
22680;DHT22;11507;44.858;10.374;2023-03-01T10:48:26;7.50;99.90
22680;DHT22;11507;44.858;10.374;2023-03-01T10:58:34;7.50;99.90
22680;DHT22;11507;44.858;10.374;2023-03-01T11:03:36;7.60;99.90
22680;DHT22;11507;44.858;10.374;2023-03-01T11:08:45;7.60;99.90
22680;DHT22;11507;44.858;10.374;2023-03-01T11:11:18;7.50;99.90
22680;DHT22;11507;44.858;10.374;2023-03-01T11:16:37;7.40;99.90
22680;DHT22;11507;44.858;10.374;2023-03-01T11:22:06;7.40;99.90
22680;DHT22;11507;44.858;10.374;2023-03-01T11:24:48;7.40;99.90
22680;DHT22;11507;44.858;10.374;2023-03-01T11:27:38;7.40;99.90
22680;DHT22;11507;44.858;10.374;2023-03-01T11:30:23;7.30;99.90
22680;DHT22;11507;44.858;10.374;2023-03-01T11:33:24;7.20;99.90
22680;DHT22;11507;44.858;10.374;2023-03-01T11:38:50;7.10;99.90
22680;DHT22;11507;44.858;10.374;2023-03-01T11:41:30;7.10;99.90
22680;DHT22;11507;44.858;10.374;2023-03-01T11:44:08;7.00;99.90
22680;DHT22;11507;44.858;10.374;2023-03-01T11:46:49;6.90;99.90
22680;DHT22;11507;44.858;10.374;2023-03-01T11:49:48;6.90;99.90
22680;DHT22;11507;44.858;10.374;2023-03-01T12:01:20;6.80;99.90
22680;DHT22;11507;44.858;10.374;2023-03-01T12:06:31;6.80;99.90
22680;DHT22;11507;44.858;10.374;2023-03-01T12:09:21;6.80;99.90
22680;DHT22;11507;44.858;10.374;2023-03-01T12:18:32;6.70;99.90
22680;DHT22;11507;44.858;10.374;2023-03-01T12:42:39;6.10;99.90
22680;DHT22;11507;44.858;10.374;2023-03-01T12:50:32;6.00;99.90
22680;DHT22;11507;44.858;10.374;2023-03-01T12:53:00;6.00;99.90
22680;DHT22;11507;44.858;10.374;2023-03-01T12:55:31;5.90;99.90
22680;DHT22;11507;44.858;10.374;2023-03-01T13:09:28;5.60;99.90
22680;DHT22;11507;44.858;10.374;2023-03-01T13:11:56;5.50;99.90
22680;DHT22;11507;44.858;10.374;2023-03-01T13:16:55;5.40;99.90
22680;DHT22;11507;44.858;10.374;2023-03-01T13:19:26;5.30;99.90
22680;DHT22;11507;44.858;10.374;2023-03-01T13:21:55;5.30;99.90
22680;DHT22;11507;44.858;10.374;2023-03-01T13:24:39;5.20;99.90
22680;DHT22;11507;44.858;10.374;2023-03-01T13:32:24;5.30;99.90
22680;DHT22;11507;44.858;10.374;2023-03-01T13:34:55;5.20;99.90
22680;DHT22;11507;44.858;10.374;2023-03-01T13:37:25;5.20;99.90
22680;DHT22;11507;44.858;10.374;2023-03-01T13:39:56;5.20;99.90
22680;DHT22;11507;44.858;10.374;2023-03-01T13:42:36;5.20;99.90
22680;DHT22;11507;44.858;10.374;2023-03-01T13:45:12;5.20;99.90
22680;DHT22;11507;44.858;10.374;2023-03-01T13:47:41;5.20;99.90
22680;DHT22;11507;44.858;10.374;2023-03-01T13:50:18;5.20;99.90
22680;DHT22;11507;44.858;10.374;2023-03-01T13:52:52;5.10;99.90
22680;DHT22;11507;44.858;10.374;2023-03-01T13:57:55;5.00;99.90
22680;DHT22;11507;44.858;10.374;2023-03-01T14:00:34;5.00;99.90
22680;DHT22;11507;44.858;10.374;2023-03-01T14:03:12;5.00;99.90
22680;DHT22;11507;44.858;10.374;2023-03-01T14:05:40;5.00;99.90
22680;DHT22;11507;44.858;10.374;2023-03-01T14:08:20;5.00;99.90
22680;DHT22;11507;44.858;10.374;2023-03-01T14:13:59;4.90;99.90
22680;DHT22;11507;44.858;10.374;2023-03-01T14:19:23;4.80;99.90
22680;DHT22;11507;44.858;10.374;2023-03-01T14:22:46;4.80;99.90
22680;DHT22;11507;44.858;10.374;2023-03-01T14:24:50;4.80;99.90
22680;DHT22;11507;44.858;10.374;2023-03-01T14:27:17;4.80;99.90
22680;DHT22;11507;44.858;10.374;2023-03-01T14:29:55;4.90;99.90
22680;DHT22;11507;44.858;10.374;2023-03-01T14:32:25;4.90;99.90
22680;DHT22;11507;44.858;10.374;2023-03-01T14:34:52;5.00;99.90
22680;DHT22;11507;44.858;10.374;2023-03-01T14:37:29;5.10;99.90
22680;DHT22;11507;44.858;10.374;2023-03-01T14:39:58;5.10;99.90
22680;DHT22;11507;44.858;10.374;2023-03-01T14:42:28;5.20;99.90
22680;DHT22;11507;44.858;10.374;2023-03-01T14:44:56;5.30;99.90
22680;DHT22;11507;44.858;10.374;2023-03-01T14:47:41;5.30;99.90
22680;DHT22;11507;44.858;10.374;2023-03-01T14:50:34;5.40;99.90
22680;DHT22;11507;44.858;10.374;2023-03-01T14:53:03;5.40;99.90
22680;DHT22;11507;44.858;10.374;2023-03-01T14:55:44;5.40;99.90
22680;DHT22;11507;44.858;10.374;2023-03-01T14:58:17;5.40;99.90
22680;DHT22;11507;44.858;10.374;2023-03-01T15:00:56;5.30;99.90
22680;DHT22;11507;44.858;10.374;2023-03-01T15:03:50;5.30;99.90
22680;DHT22;11507;44.858;10.374;2023-03-01T15:06:22;5.40;99.90
22680;DHT22;11507;44.858;10.374;2023-03-01T15:08:53;5.30;99.90
22680;DHT22;11507;44.858;10.374;2023-03-01T15:11:27;5.40;99.90
22680;DHT22;11507;44.858;10.374;2023-03-01T15:13:54;5.40;99.90
22680;DHT22;11507;44.858;10.374;2023-03-01T15:19:00;5.30;99.90
22680;DHT22;11507;44.858;10.374;2023-03-01T15:21:34;5.20;99.90
22680;DHT22;11507;44.858;10.374;2023-03-01T15:27:13;5.20;99.90
22680;DHT22;11507;44.858;10.374;2023-03-01T15:30:00;5.20;99.90
22680;DHT22;11507;44.858;10.374;2023-03-01T15:32:29;5.10;99.90
22680;DHT22;11507;44.858;10.374;2023-03-01T15:35:00;5.10;99.90
22680;DHT22;11507;44.858;10.374;2023-03-01T15:37:47;5.10;99.90
22680;DHT22;11507;44.858;10.374;2023-03-01T15:40:23;5.10;99.90
22680;DHT22;11507;44.858;10.374;2023-03-01T15:42:59;5.10;99.90
22680;DHT22;11507;44.858;10.374;2023-03-01T15:45:26;5.10;99.90
22680;DHT22;11507;44.858;10.374;2023-03-01T15:47:58;5.00;99.90
22680;DHT22;11507;44.858;10.374;2023-03-01T15:50:30;5.00;99.90
22680;DHT22;11507;44.858;10.374;2023-03-01T15:53:00;4.90;99.90
22680;DHT22;11507;44.858;10.374;2023-03-01T15:55:27;4.90;99.90
22680;DHT22;11507;44.858;10.374;2023-03-01T15:58:03;4.90;99.90
22680;DHT22;11507;44.858;10.374;2023-03-01T16:00:29;4.80;99.90
22680;DHT22;11507;44.858;10.374;2023-03-01T16:02:58;4.70;99.90
22680;DHT22;11507;44.858;10.374;2023-03-01T16:05:30;4.70;99.90
22680;DHT22;11507;44.858;10.374;2023-03-01T16:07:57;4.60;99.90
22680;DHT22;11507;44.858;10.374;2023-03-01T16:10:23;4.50;99.90
22680;DHT22;11507;44.858;10.374;2023-03-01T16:12:50;4.50;99.90
22680;DHT22;11507;44.858;10.374;2023-03-01T16:17:51;4.40;99.90
22680;DHT22;11507;44.858;10.374;2023-03-01T16:20:22;4.40;99.90
22680;DHT22;11507;44.858;10.374;2023-03-01T16:22:48;4.40;99.90
22680;DHT22;11507;44.858;10.374;2023-03-01T16:25:17;4.30;99.90
22680;DHT22;11507;44.858;10.374;2023-03-01T16:27:45;4.30;99.90
22680;DHT22;11507;44.858;10.374;2023-03-01T16:30:13;4.20;99.90
22680;DHT22;11507;44.858;10.374;2023-03-01T16:32:40;4.20;99.90
22680;DHT22;11507;44.858;10.374;2023-03-01T16:35:08;4.20;99.90
22680;DHT22;11507;44.858;10.374;2023-03-01T16:37:35;4.20;99.90
22680;DHT22;11507;44.858;10.374;2023-03-01T16:40:03;4.20;99.90
22680;DHT22;11507;44.858;10.374;2023-03-01T16:42:39;4.20;99.90
22680;DHT22;11507;44.858;10.374;2023-03-01T16:45:06;4.20;99.90
22680;DHT22;11507;44.858;10.374;2023-03-01T16:47:33;4.10;99.90
22680;DHT22;11507;44.858;10.374;2023-03-01T16:50:00;4.20;99.90
22680;DHT22;11507;44.858;10.374;2023-03-01T16:52:29;4.10;99.90
22680;DHT22;11507;44.858;10.374;2023-03-01T16:54:55;4.20;99.90
22680;DHT22;11507;44.858;10.374;2023-03-01T16:57:20;4.10;99.90
22680;DHT22;11507;44.858;10.374;2023-03-01T16:59:46;4.10;99.90
22680;DHT22;11507;44.858;10.374;2023-03-01T17:02:13;4.10;99.90
22680;DHT22;11507;44.858;10.374;2023-03-01T17:04:52;4.10;99.90
22680;DHT22;11507;44.858;10.374;2023-03-01T17:07:18;4.10;99.90
22680;DHT22;11507;44.858;10.374;2023-03-01T17:09:46;4.10;99.90
22680;DHT22;11507;44.858;10.374;2023-03-01T17:12:12;4.10;99.90
22680;DHT22;11507;44.858;10.374;2023-03-01T17:14:39;4.10;99.90
22680;DHT22;11507;44.858;10.374;2023-03-01T17:17:10;4.10;99.90
22680;DHT22;11507;44.858;10.374;2023-03-01T17:19:37;4.00;99.90
22680;DHT22;11507;44.858;10.374;2023-03-01T17:22:10;4.00;99.90
22680;DHT22;11507;44.858;10.374;2023-03-01T17:24:38;4.00;99.90
22680;DHT22;11507;44.858;10.374;2023-03-01T17:27:04;4.00;99.90
22680;DHT22;11507;44.858;10.374;2023-03-01T17:29:30;4.00;99.90
22680;DHT22;11507;44.858;10.374;2023-03-01T17:31:56;3.90;99.90
22680;DHT22;11507;44.858;10.374;2023-03-01T17:34:22;3.90;99.90
22680;DHT22;11507;44.858;10.374;2023-03-01T17:36:48;3.90;99.90
22680;DHT22;11507;44.858;10.374;2023-03-01T17:39:15;3.80;99.90
22680;DHT22;11507;44.858;10.374;2023-03-01T17:41:42;3.80;99.90
22680;DHT22;11507;44.858;10.374;2023-03-01T17:44:08;3.80;99.90
22680;DHT22;11507;44.858;10.374;2023-03-01T17:46:34;3.80;99.90
22680;DHT22;11507;44.858;10.374;2023-03-01T17:49:00;3.80;99.90
22680;DHT22;11507;44.858;10.374;2023-03-01T17:51:26;3.70;99.90
22680;DHT22;11507;44.858;10.374;2023-03-01T17:53:52;3.80;99.90
22680;DHT22;11507;44.858;10.374;2023-03-01T17:56:18;3.70;99.90
22680;DHT22;11507;44.858;10.374;2023-03-01T17:58:44;3.60;99.90